Time;durP1;ratioP1;P1;durP2;ratioP2;P2;SDS_P1;SDS_P2;PMS_P1;PMS_P2;Temp;Humidity;BMP_temperature;BMP_pressure;BME280_temperature;BME280_humidity;BME280_pressure;Samples;Min_cycle;Max_cycle;Signal;HPM_P1;HPM_P2
2022/09/22 00:01:11;;;;;;;3.30;2.28;;;8.20;99.90;;;;;;5049155;28;20037;-83
2022/09/22 00:03:39;;;;;;;4.35;2.40;;;8.20;99.90;;;;;;5050072;28;20032;-82
2022/09/22 00:06:10;;;;;;;7.25;2.53;;;8.10;99.90;;;;;;5048508;28;20029;-82
2022/09/22 00:08:38;;;;;;;17.23;2.70;;;8.10;99.90;;;;;;5048772;28;20059;-82
2022/09/22 00:11:15;;;;;;;3.58;2.10;;;8.10;99.90;;;;;;5048799;28;20029;-83
2022/09/22 00:13:43;;;;;;;5.95;2.13;;;8.10;99.90;;;;;;5049200;28;20029;-83
2022/09/22 00:16:10;;;;;;;2.88;1.67;;;8.10;99.90;;;;;;5048587;28;20478;-81
2022/09/22 00:18:36;;;;;;;2.53;1.80;;;8.10;99.90;;;;;;5048936;28;20035;-81
2022/09/22 00:21:11;;;;;;;3.53;2.05;;;8.00;99.90;;;;;;5050035;28;20036;-83
2022/09/22 00:23:38;;;;;;;2.88;2.03;;;8.00;99.90;;;;;;5048999;28;20025;-83
2022/09/22 00:26:10;;;;;;;2.88;2.10;;;8.10;99.90;;;;;;5048671;28;20136;-82
2022/09/22 00:28:37;;;;;;;3.08;1.65;;;8.00;99.90;;;;;;5048802;28;20036;-83
2022/09/22 00:31:05;;;;;;;3.55;1.85;;;7.90;99.90;;;;;;5047639;28;20025;-84
2022/09/22 00:33:31;;;;;;;3.83;1.90;;;7.90;99.90;;;;;;5048351;28;20041;-83
2022/09/22 00:35:57;;;;;;;;;;;7.80;99.90;;;;;;5048957;28;20452;-81
2022/09/22 00:38:23;;;;;;;3.73;1.30;;;7.80;99.90;;;;;;5048444;28;20278;-82
2022/09/22 00:40:49;;;;;;;2.30;1.38;;;7.80;99.90;;;;;;5050092;28;20349;-82
2022/09/22 00:43:20;;;;;;;;;;;7.70;99.90;;;;;;5049189;28;20124;-84
2022/09/22 00:45:53;;;;;;;2.17;1.50;;;7.70;99.90;;;;;;5049972;28;19905;-84
2022/09/22 00:48:22;;;;;;;2.97;1.73;;;7.70;99.90;;;;;;5048838;28;20167;-84
2022/09/22 00:50:50;;;;;;;6.05;1.55;;;7.70;99.90;;;;;;5050443;28;20503;-83
2022/09/22 00:53:16;;;;;;;8.88;2.20;;;7.70;99.90;;;;;;5047508;28;20063;-81
2022/09/22 00:55:54;;;;;;;3.42;1.73;;;7.70;99.90;;;;;;5047031;28;20070;-82
2022/09/22 00:58:24;;;;;;;6.20;3.92;;;7.70;99.90;;;;;;5047558;28;20075;-82
2022/09/22 01:00:50;;;;;;;3.33;2.15;;;7.70;99.90;;;;;;5046645;28;20025;-81
2022/09/22 01:03:18;;;;;;;;;;;7.70;99.90;;;;;;5046369;28;20044;-81
2022/09/22 01:05:47;;;;;;;2.53;1.70;;;7.70;99.90;;;;;;5046447;28;19915;-82
2022/09/22 01:08:15;;;;;;;5.00;2.25;;;7.70;99.90;;;;;;5047916;28;20052;-83
2022/09/22 01:10:40;;;;;;;4.38;2.10;;;7.70;99.90;;;;;;5048451;28;20330;-83
2022/09/22 01:13:18;;;;;;;;;;;7.60;99.90;;;;;;5048613;28;20524;-83
2022/09/22 01:16:12;;;;;;;9.43;2.00;;;7.60;99.90;;;;;;5049587;28;19905;-83
2022/09/22 01:18:47;;;;;;;2.47;1.52;;;7.50;99.90;;;;;;5047727;28;20059;-83
2022/09/22 01:21:21;;;;;;;4.30;2.35;;;7.60;99.90;;;;;;5050243;28;20021;-85
2022/09/22 01:24:23;;;;;;;3.50;2.05;;;7.60;99.90;;;;;;5049230;28;20032;-85
2022/09/22 01:27:07;;;;;;;3.10;1.65;;;7.60;99.90;;;;;;5048092;28;20033;-85
2022/09/22 01:29:51;;;;;;;4.13;2.13;;;7.50;99.90;;;;;;5049683;28;20068;-84
2022/09/22 01:32:31;;;;;;;7.28;2.00;;;7.50;99.90;;;;;;5048458;28;20446;-85
2022/09/22 01:35:30;;;;;;;2.67;1.60;;;7.60;99.90;;;;;;5047709;28;20827;-82
2022/09/22 01:38:09;;;;;;;3.40;1.65;;;7.60;99.90;;;;;;5042089;28;20047;-82
2022/09/22 01:40:49;;;;;;;3.20;1.88;;;7.50;99.90;;;;;;5047517;28;20073;-83
2022/09/22 01:43:41;;;;;;;2.53;1.30;;;7.50;99.90;;;;;;5049045;28;20029;-84
2022/09/22 01:46:16;;;;;;;3.42;1.45;;;7.50;99.90;;;;;;5048591;28;20059;-84
2022/09/22 01:48:45;;;;;;;2.90;1.58;;;7.40;99.90;;;;;;5049125;28;20078;-85
2022/09/22 01:51:14;;;;;;;2.88;1.23;;;7.40;99.90;;;;;;5045850;28;20025;-81
2022/09/22 01:53:53;;;;;;;4.55;1.30;;;7.40;99.90;;;;;;5047777;28;20029;-81
2022/09/22 01:56:21;;;;;;;5.15;1.83;;;7.50;99.90;;;;;;5046112;28;20029;-81
2022/09/22 01:58:57;;;;;;;2.55;1.73;;;7.50;99.90;;;;;;5047938;28;20391;-82
2022/09/22 02:01:27;;;;;;;2.53;1.80;;;7.50;99.90;;;;;;5047165;28;20378;-82
2022/09/22 02:04:17;;;;;;;2.15;1.42;;;7.50;99.90;;;;;;5064633;28;20473;-83
2022/09/22 02:06:48;;;;;;;9.93;2.78;;;7.50;99.90;;;;;;5056101;28;20343;-83
2022/09/22 02:09:22;;;;;;;4.18;1.75;;;7.50;99.90;;;;;;5067842;28;20500;-81
2022/09/22 02:11:49;;;;;;;3.00;1.70;;;7.50;99.90;;;;;;5066989;28;20133;-82
2022/09/22 02:14:15;;;;;;;3.25;1.80;;;7.50;99.90;;;;;;5067463;28;20089;-82
2022/09/22 02:16:41;;;;;;;4.88;1.70;;;7.50;99.90;;;;;;5067534;28;20400;-82
2022/09/22 02:19:17;;;;;;;;;;;7.40;99.90;;;;;;5067621;28;20170;-82
2022/09/22 02:21:45;;;;;;;2.00;1.48;;;7.40;99.90;;;;;;5067346;28;19905;-82
2022/09/22 02:24:30;;;;;;;2.38;1.70;;;7.40;99.90;;;;;;5066927;28;20520;-82
2022/09/22 02:27:03;;;;;;;2.70;1.75;;;7.40;99.90;;;;;;5067131;28;20036;-82
2022/09/22 02:29:34;;;;;;;1.92;1.25;;;7.40;99.90;;;;;;5067892;28;20044;-81
2022/09/22 02:32:04;;;;;;;1.88;1.38;;;7.40;99.90;;;;;;5067249;28;20039;-84
2022/09/22 02:34:30;;;;;;;2.33;1.48;;;7.30;99.90;;;;;;5067502;28;20115;-83
2022/09/22 02:37:03;;;;;;;;;;;7.30;99.90;;;;;;5067955;28;20036;-83
2022/09/22 02:39:34;;;;;;;2.10;1.23;;;7.30;99.90;;;;;;5075805;28;19916;-83
2022/09/22 02:42:15;;;;;;;3.65;1.33;;;7.30;99.90;;;;;;5066355;28;20049;-82
2022/09/22 02:44:55;;;;;;;2.10;1.42;;;7.20;99.90;;;;;;5051362;28;20033;-83
2022/09/22 02:47:47;;;;;;;2.08;1.30;;;7.20;99.90;;;;;;5051122;28;20021;-84
2022/09/22 02:50:16;;;;;;;3.58;1.45;;;7.20;99.90;;;;;;5050753;28;20033;-83
2022/09/22 02:52:42;;;;;;;4.13;1.40;;;7.20;99.90;;;;;;5050977;28;20505;-83
2022/09/22 02:55:08;;;;;;;;;;;7.20;99.90;;;;;;5050990;28;20151;-83
2022/09/22 02:57:33;;;;;;;2.10;1.70;;;7.20;99.90;;;;;;5050908;28;19962;-82
2022/09/22 02:59:59;;;;;;;;;;;7.10;99.90;;;;;;5051450;28;20112;-83
2022/09/22 03:02:25;;;;;;;2.25;1.17;;;7.20;99.90;;;;;;5050196;28;19967;-83
2022/09/22 03:04:50;;;;;;;3.20;1.85;;;7.20;99.90;;;;;;5050602;28;20025;-82
2022/09/22 03:07:16;;;;;;;;;;;7.20;99.90;;;;;;5050285;28;20067;-82
2022/09/22 03:09:42;;;;;;;3.10;2.00;;;7.30;99.90;;;;;;5050952;28;19927;-83
2022/09/22 03:12:08;;;;;;;;;;;7.30;99.90;;;;;;5051131;28;20489;-83
2022/09/22 03:14:33;;;;;;;3.53;2.00;;;7.30;99.90;;;;;;5050372;28;19905;-83
2022/09/22 03:16:59;;;;;;;3.42;1.92;;;7.30;99.90;;;;;;5049097;28;20070;-82
2022/09/22 03:19:27;;;;;;;;;;;7.40;99.90;;;;;;5050338;28;20506;-82
2022/09/22 03:21:53;;;;;;;2.97;1.48;;;7.30;99.90;;;;;;5050501;28;19927;-82
2022/09/22 03:24:18;;;;;;;;;;;7.30;99.90;;;;;;5049005;28;20572;-83
2022/09/22 03:26:44;;;;;;;3.03;1.55;;;7.30;99.90;;;;;;5048125;28;20407;-81
2022/09/22 03:29:10;;;;;;;;;;;7.30;99.90;;;;;;5050008;28;20037;-83
2022/09/22 03:31:35;;;;;;;5.95;2.20;;;7.20;99.90;;;;;;5049098;28;19996;-82
2022/09/22 03:34:01;;;;;;;;;;;7.20;99.90;;;;;;5050750;28;20017;-82
2022/09/22 03:36:27;;;;;;;25.77;19.55;;;7.20;99.90;;;;;;5047158;28;20003;-82
2022/09/22 03:38:52;;;;;;;;;;;7.20;99.90;;;;;;5049164;28;20116;-81
2022/09/22 03:41:18;;;;;;;3.80;2.70;;;7.20;99.90;;;;;;5048372;28;19916;-82
2022/09/22 03:43:44;;;;;;;;;;;7.20;99.90;;;;;;5050615;28;20394;-82
2022/09/22 03:46:10;;;;;;;4.20;2.08;;;7.30;99.90;;;;;;5049280;28;20007;-81
2022/09/22 03:48:35;;;;;;;;;;;7.30;99.90;;;;;;5049469;28;20057;-83
2022/09/22 03:51:01;;;;;;;7.90;6.13;;;7.30;99.90;;;;;;5050074;28;19904;-84
2022/09/22 03:53:27;;;;;;;;;;;7.40;99.90;;;;;;5051352;28;20051;-84
2022/09/22 03:56:06;;;;;;;79.32;61.65;;;7.30;99.90;;;;;;5051747;28;19912;-84
2022/09/22 03:58:32;;;;;;;91.88;75.82;;;7.40;99.90;;;;;;5050353;28;20029;-84
2022/09/22 04:00:57;;;;;;;;;;;7.40;99.90;;;;;;5051568;28;20398;-82
2022/09/22 04:03:23;;;;;;;32.08;24.30;;;7.50;99.90;;;;;;5048262;28;19912;-81
2022/09/22 04:05:49;;;;;;;;;;;7.50;99.90;;;;;;5049535;28;20025;-82
2022/09/22 04:08:14;;;;;;;12.63;8.30;;;7.60;99.90;;;;;;5049064;28;19923;-82
2022/09/22 04:10:40;;;;;;;;;;;7.70;99.90;;;;;;5048663;28;20021;-82
2022/09/22 04:13:05;;;;;;;8.43;1.70;;;7.70;99.90;;;;;;5049014;28;19908;-81
2022/09/22 04:15:31;;;;;;;;;;;7.70;99.90;;;;;;5047875;28;20025;-81
2022/09/22 04:17:57;;;;;;;2.25;1.27;;;7.70;99.90;;;;;;5047024;28;19954;-81
2022/09/22 04:20:22;;;;;;;;;;;7.80;99.90;;;;;;5048561;28;20033;-82
2022/09/22 04:22:48;;;;;;;2.00;1.27;;;7.80;99.90;;;;;;5046819;28;20403;-81
2022/09/22 04:25:13;;;;;;;3.17;1.50;;;7.90;99.90;;;;;;5048053;28;20028;-81
2022/09/22 04:27:39;;;;;;;;;;;8.00;99.90;;;;;;5047176;28;20045;-82
2022/09/22 04:30:05;;;;;;;3.03;1.85;;;7.90;99.90;;;;;;5047340;28;19997;-82
2022/09/22 04:32:31;;;;;;;6.25;2.13;;;7.90;99.90;;;;;;5048817;28;20033;-85
2022/09/22 04:34:57;;;;;;;;;;;7.90;99.90;;;;;;5047396;28;20389;-85
2022/09/22 04:37:22;;;;;;;5.25;2.55;;;7.90;99.90;;;;;;5049941;28;20090;-85
2022/09/22 04:39:49;;;;;;;;;;;7.90;99.90;;;;;;5050452;28;20033;-85
2022/09/22 04:42:14;;;;;;;6.22;4.20;;;8.00;99.90;;;;;;5048021;28;20365;-82
2022/09/22 04:44:40;;;;;;;;;;;8.00;99.90;;;;;;5045866;28;20052;-81
2022/09/22 04:47:06;;;;;;;5.03;3.38;;;8.10;99.90;;;;;;5048208;28;19909;-85
2022/09/22 04:49:31;;;;;;;3.88;2.50;;;8.20;99.90;;;;;;5048253;28;20029;-83
2022/09/22 04:51:57;;;;;;;;;;;8.30;99.90;;;;;;5049617;28;20672;-85
2022/09/22 04:54:22;;;;;;;14.02;7.15;;;8.40;99.90;;;;;;5047874;28;19932;-85
2022/09/22 04:56:48;;;;;;;;;;;8.40;99.90;;;;;;5050042;28;20524;-83
2022/09/22 04:59:14;;;;;;;10.95;3.60;;;8.50;99.90;;;;;;5047623;28;19956;-84
2022/09/22 05:01:39;;;;;;;;;;;8.50;99.90;;;;;;5046865;28;20033;-85
2022/09/22 05:04:05;;;;;;;11.45;6.60;;;8.60;99.90;;;;;;5048141;28;20537;-83
2022/09/22 05:06:30;;;;;;;;;;;8.60;99.90;;;;;;5049035;28;20025;-84
2022/09/22 05:08:56;;;;;;;8.88;6.03;;;8.70;99.90;;;;;;5047060;28;19916;-84
2022/09/22 05:11:22;;;;;;;;;;;8.70;99.90;;;;;;5048503;28;20029;-84
2022/09/22 05:13:49;;;;;;;8.32;4.78;;;8.80;99.90;;;;;;5046642;28;19913;-83
2022/09/22 05:16:16;;;;;;;9.07;3.70;;;8.80;99.90;;;;;;5047992;28;20036;-84
2022/09/22 05:18:41;;;;;;;7.80;4.28;;;8.90;99.90;;;;;;5057482;28;20021;-84
2022/09/22 05:21:07;;;;;;;;;;;8.90;99.90;;;;;;5066808;28;20042;-83
2022/09/22 05:23:33;;;;;;;21.20;4.88;;;9.00;99.90;;;;;;5068917;28;20008;-84
2022/09/22 05:25:58;;;;;;;;;;;9.00;99.90;;;;;;5064061;28;20339;-84
2022/09/22 05:28:24;;;;;;;9.30;5.97;;;9.00;99.90;;;;;;5048501;28;19916;-83
2022/09/22 05:30:50;;;;;;;;;;;9.00;99.90;;;;;;5047957;28;20028;-85
2022/09/22 05:33:16;;;;;;;6.90;4.35;;;9.10;99.90;;;;;;5048185;28;20320;-84
2022/09/22 05:35:42;;;;;;;5.05;3.58;;;9.30;99.90;;;;;;5035255;28;20375;-84
2022/09/22 05:38:07;;;;;;;;;;;9.20;99.90;;;;;;5047008;28;20032;-84
2022/09/22 05:40:33;;;;;;;8.43;5.50;;;9.30;99.90;;;;;;5047958;28;19909;-84
2022/09/22 05:42:58;;;;;;;;;;;9.40;99.90;;;;;;5048199;28;20504;-85
2022/09/22 05:45:24;;;;;;;8.10;3.90;;;9.50;99.90;;;;;;5047143;28;19911;-85
2022/09/22 05:47:50;;;;;;;;;;;9.60;99.90;;;;;;5047723;28;20043;-84
2022/09/22 05:50:17;;;;;;;8.32;3.40;;;9.80;99.90;;;;;;5047662;28;19916;-84
2022/09/22 05:52:43;;;;;;;6.50;1.95;;;9.90;99.90;;;;;;5047363;28;20036;-83
2022/09/22 05:55:09;;;;;;;;;;;10.00;99.90;;;;;;5047390;28;20161;-83
2022/09/22 05:57:34;;;;;;;4.70;1.63;;;10.20;99.90;;;;;;5047481;28;20353;-84
2022/09/22 06:00:00;;;;;;;;;;;10.40;99.90;;;;;;5047909;28;20033;-84
2022/09/22 06:02:26;;;;;;;12.93;8.10;;;10.60;99.90;;;;;;5046928;28;19905;-84
2022/09/22 06:04:52;;;;;;;;;;;10.70;99.90;;;;;;5047669;28;20035;-85
2022/09/22 06:07:23;;;;;;;41.83;24.15;;;10.90;99.90;;;;;;5048971;28;19927;-85
2022/09/22 06:09:49;;;;;;;29.38;14.60;;;11.00;99.90;;;;;;5046840;28;20780;-84
2022/09/22 06:12:15;;;;;;;23.23;11.55;;;11.10;99.90;;;;;;5047952;28;20097;-85
2022/09/22 06:14:41;;;;;;;12.88;7.85;;;11.10;99.90;;;;;;5051727;28;20039;-84
2022/09/22 06:17:10;;;;;;;;;;;11.20;99.90;;;;;;5051506;28;20029;-84
2022/09/22 06:19:37;;;;;;;13.32;6.20;;;11.40;99.90;;;;;;5050838;28;19936;-85
2022/09/22 06:22:03;;;;;;;8.73;4.22;;;11.80;99.90;;;;;;5052043;28;20120;-85
2022/09/22 06:24:28;;;;;;;;;;;12.50;99.90;;;;;;5051455;28;20111;-85
2022/09/22 06:26:54;;;;;;;4.10;2.33;;;13.00;99.90;;;;;;5051153;28;19994;-84
2022/09/22 06:29:20;;;;;;;;;;;13.30;99.90;;;;;;5050682;28;20123;-84
2022/09/22 06:31:47;;;;;;;4.38;1.73;;;13.40;99.90;;;;;;5051754;28;19931;-84
2022/09/22 06:34:13;;;;;;;2.55;1.20;;;13.40;99.90;;;;;;5050709;28;20029;-85
2022/09/22 06:36:41;;;;;;;;;;;13.50;99.90;;;;;;5051429;28;20035;-84
2022/09/22 06:39:09;;;;;;;6.72;2.03;;;13.50;99.90;;;;;;5050493;28;19908;-84
2022/09/22 06:41:35;;;;;;;3.35;1.95;;;13.60;99.90;;;;;;5050776;28;20024;-84
2022/09/22 06:44:00;;;;;;;;;;;13.70;99.90;;;;;;5051232;28;20033;-86
2022/09/22 06:46:29;;;;;;;8.63;2.28;;;13.80;99.90;;;;;;5050546;28;19905;-85
2022/09/22 06:48:56;;;;;;;3.17;1.75;;;13.90;99.90;;;;;;5051594;28;20048;-85
2022/09/22 06:51:25;;;;;;;10.93;1.65;;;14.00;99.90;;;;;;5050629;28;20087;-85
2022/09/22 06:53:53;;;;;;;4.20;1.60;;;14.20;99.90;;;;;;5050849;28;20032;-86
2022/09/22 06:56:20;;;;;;;3.42;1.67;;;14.30;99.90;;;;;;5051085;28;20032;-85
2022/09/22 06:58:48;;;;;;;10.63;3.42;;;14.80;99.90;;;;;;5051694;28;20451;-85
2022/09/22 07:01:15;;;;;;;5.75;3.08;;;15.50;99.90;;;;;;5050952;28;20029;-84
2022/09/22 07:03:41;;;;;;;6.13;2.72;;;15.90;99.90;;;;;;5048810;28;20098;-86
2022/09/22 07:06:08;;;;;;;8.25;3.03;;;16.00;99.90;;;;;;5048405;28;20032;-86
2022/09/22 07:08:34;;;;;;;10.35;3.50;;;16.10;99.90;;;;;;5049961;28;20057;-86
2022/09/22 07:11:03;;;;;;;6.22;4.00;;;16.10;99.90;;;;;;5051500;28;20021;-85
2022/09/22 07:13:30;;;;;;;10.05;4.35;;;16.40;99.90;;;;;;5050206;28;20178;-85
2022/09/22 07:16:06;;;;;;;7.35;4.13;;;16.90;99.90;;;;;;5050049;28;20021;-86
2022/09/22 07:18:32;;;;;;;5.90;4.10;;;17.50;99.90;;;;;;5051728;28;20032;-86
2022/09/22 07:21:11;;;;;;;10.88;4.63;;;17.60;99.90;;;;;;5051382;28;20033;-85
2022/09/22 07:23:37;;;;;;;8.00;4.07;;;17.90;99.90;;;;;;5049239;28;20044;-82
2022/09/22 07:26:04;;;;;;;6.00;2.90;;;18.00;99.90;;;;;;5049707;28;20024;-83
2022/09/22 07:28:32;;;;;;;8.38;2.72;;;17.80;99.90;;;;;;5049581;28;20349;-83
2022/09/22 07:31:05;;;;;;;5.43;2.97;;;17.60;99.90;;;;;;5049916;28;20058;-83
2022/09/22 07:33:32;;;;;;;6.25;3.10;;;17.30;99.90;;;;;;5049591;28;20409;-84
2022/09/22 07:36:03;;;;;;;5.40;3.53;;;17.00;99.90;;;;;;5050797;28;20025;-83
2022/09/22 07:38:32;;;;;;;6.72;3.17;;;16.80;99.90;;;;;;5049666;28;20061;-83
2022/09/22 07:40:59;;;;;;;8.70;3.35;;;16.60;99.90;;;;;;5049715;28;20036;-82
2022/09/22 07:43:27;;;;;;;7.65;3.75;;;16.40;99.90;;;;;;5048996;28;20409;-82
2022/09/22 07:46:02;;;;;;;9.13;3.90;;;16.10;99.90;;;;;;5050741;28;20017;-82
2022/09/22 07:48:46;;;;;;;7.22;2.97;;;15.90;99.90;;;;;;5049571;28;20044;-81
2022/09/22 07:51:17;;;;;;;5.65;3.17;;;15.60;99.90;;;;;;5048967;28;20028;-82
2022/09/22 07:53:44;;;;;;;5.93;2.45;;;15.40;99.90;;;;;;5049563;28;20021;-82
2022/09/22 07:56:13;;;;;;;4.82;2.58;;;15.30;99.90;;;;;;5049394;28;20025;-82
2022/09/22 07:58:49;;;;;;;10.95;2.47;;;15.10;99.90;;;;;;5049095;28;20045;-82
2022/09/22 08:01:16;;;;;;;4.20;1.83;;;15.00;99.90;;;;;;5050396;28;20067;-83
2022/09/22 08:03:42;;;;;;;5.10;2.08;;;14.90;99.90;;;;;;5066848;28;20042;-85
2022/09/22 08:06:10;;;;;;;3.65;1.42;;;14.90;99.90;;;;;;5068852;28;20071;-85
2022/09/22 08:08:45;;;;;;;1.88;0.93;;;14.80;99.90;;;;;;5068480;28;20052;-85
2022/09/22 08:11:18;;;;;;;2.92;0.88;;;14.90;99.90;;;;;;5055016;28;20553;-85
2022/09/22 08:13:50;;;;;;;3.85;0.90;;;15.00;99.90;;;;;;5048681;28;20025;-84
2022/09/22 08:16:17;;;;;;;1.00;0.50;;;14.90;99.90;;;;;;5047390;28;20033;-84
2022/09/22 08:18:43;;;;;;;7.28;1.45;;;15.00;99.90;;;;;;5048819;28;20075;-84
2022/09/22 08:21:09;;;;;;;2.90;1.30;;;14.90;99.90;;;;;;5049363;28;20533;-84
2022/09/22 08:23:36;;;;;;;6.25;1.85;;;14.70;99.90;;;;;;5042518;28;20032;-83
2022/09/22 08:26:05;;;;;;;3.58;2.42;;;14.70;99.90;;;;;;5049049;28;20055;-84
2022/09/22 08:28:31;;;;;;;13.98;5.35;;;14.70;99.90;;;;;;5049995;28;20120;-84
2022/09/22 08:30:57;;;;;;;10.85;3.45;;;14.90;99.90;;;;;;5050709;28;20099;-84
2022/09/22 08:33:25;;;;;;;6.40;2.10;;;14.80;99.90;;;;;;5048252;28;20036;-83
2022/09/22 08:36:02;;;;;;;5.88;2.17;;;14.70;99.90;;;;;;5048138;28;20421;-84
2022/09/22 08:38:29;;;;;;;2.97;1.40;;;14.50;99.90;;;;;;5050046;28;20116;-85
2022/09/22 08:41:04;;;;;;;13.13;3.08;;;14.10;99.90;;;;;;5048907;28;20108;-84
2022/09/22 08:43:31;;;;;;;11.38;3.83;;;13.80;99.90;;;;;;5047646;28;20029;-85
2022/09/22 08:45:57;;;;;;;3.95;2.45;;;13.70;99.90;;;;;;5049585;28;20067;-85
2022/09/22 08:54:04;;;;;;;3.67;1.42;;;13.90;99.90;;;;;;5036632;28;20233;-84
2022/09/22 08:56:35;;;;;;;5.88;1.70;;;14.10;99.90;;;;;;5039822;28;20035;-84
2022/09/22 08:59:15;;;;;;;3.28;1.60;;;14.20;99.90;;;;;;5048253;28;20036;-83
2022/09/22 09:01:53;;;;;;;3.53;1.40;;;14.80;99.90;;;;;;5035425;28;20059;-85
2022/09/22 09:04:40;;;;;;;4.43;1.65;;;16.00;99.90;;;;;;5044841;28;20478;-84
2022/09/22 09:07:35;;;;;;;6.45;1.45;;;17.40;99.90;;;;;;5044825;28;20498;-84
2022/09/22 09:10:27;;;;;;;1.83;1.13;;;18.70;99.90;;;;;;5019151;28;20047;-86
2022/09/22 09:13:23;;;;;;;4.28;1.33;;;20.10;99.90;;;;;;5047502;28;20031;-85
2022/09/22 09:16:07;;;;;;;3.22;1.63;;;21.20;97.40;;;;;;5048969;28;20027;-86
2022/09/22 09:18:38;;;;;;;2.95;1.30;;;21.90;96.30;;;;;;5044921;28;20055;-86
2022/09/22 09:21:08;;;;;;;3.50;1.20;;;22.60;95.00;;;;;;5046170;28;20056;-86
2022/09/22 09:23:42;;;;;;;2.17;1.27;;;23.20;93.30;;;;;;5028027;28;20113;-86
2022/09/22 09:26:08;;;;;;;2.33;1.10;;;23.50;89.20;;;;;;5041975;28;20108;-86
2022/09/22 09:28:57;;;;;;;4.07;1.50;;;23.00;89.60;;;;;;5048241;28;20131;-85
2022/09/22 09:31:33;;;;;;;2.58;1.23;;;22.40;90.40;;;;;;5050076;28;20046;-86
2022/09/22 09:34:04;;;;;;;4.05;1.65;;;22.10;90.60;;;;;;5044797;28;20179;-86
2022/09/22 09:36:53;;;;;;;2.75;1.67;;;21.70;91.70;;;;;;5046761;28;20506;-84
2022/09/22 09:39:31;;;;;;;2.72;1.60;;;22.00;90.40;;;;;;5047810;28;20025;-85
2022/09/22 09:41:59;;;;;;;2.85;1.40;;;22.50;88.40;;;;;;5047036;28;20028;-86
2022/09/22 09:44:38;;;;;;;1.92;0.90;;;22.50;87.90;;;;;;5041269;28;20033;-86
2022/09/22 09:47:18;;;;;;;3.40;1.10;;;22.50;85.70;;;;;;5043636;28;20179;-85
2022/09/22 09:49:45;;;;;;;1.15;0.70;;;22.50;84.70;;;;;;5052128;28;20037;-85
2022/09/22 09:52:13;;;;;;;1.83;1.10;;;22.90;84.30;;;;;;5051413;28;20393;-86
2022/09/22 09:54:41;;;;;;;1.48;0.80;;;23.60;82.80;;;;;;5051896;28;20043;-86
2022/09/22 09:57:06;;;;;;;1.67;0.70;;;24.10;78.10;;;;;;5052626;28;20116;-86
2022/09/22 10:02:24;;;;;;;1.45;0.82;;;24.10;73.80;;;;;;5058049;28;20097;-86
2022/09/22 10:04:52;;;;;;;2.97;0.80;;;23.20;75.50;;;;;;5072890;28;20029;-85
2022/09/22 10:07:38;;;;;;;1.45;0.80;;;22.50;77.00;;;;;;5070302;28;20064;-85
2022/09/22 10:10:34;;;;;;;3.45;0.63;;;21.70;78.50;;;;;;5065299;28;20102;-82
2022/09/22 10:13:02;;;;;;;2.35;1.10;;;21.10;80.90;;;;;;5050708;28;20086;-84
2022/09/22 10:15:28;;;;;;;1.67;0.80;;;20.80;83.20;;;;;;5051037;28;20116;-84
2022/09/22 10:17:54;;;;;;;1.73;0.95;;;20.80;83.70;;;;;;5049757;28;20111;-85
2022/09/22 10:20:25;;;;;;;1.58;0.95;;;21.20;84.10;;;;;;5051269;28;20493;-82
2022/09/22 10:22:55;;;;;;;1.25;0.75;;;21.40;82.40;;;;;;5051150;28;20029;-82
2022/09/22 10:25:26;;;;;;;1.95;0.98;;;21.30;80.90;;;;;;5050645;28;20044;-84
2022/09/22 10:28:16;;;;;;;2.55;0.90;;;21.10;82.70;;;;;;5049836;28;20033;-82
2022/09/22 10:30:43;;;;;;;1.92;0.50;;;21.10;81.60;;;;;;5050316;28;20112;-83
2022/09/22 10:33:14;;;;;;;2.42;0.60;;;21.00;81.60;;;;;;5051212;28;20062;-84
2022/09/22 10:35:42;;;;;;;1.45;0.80;;;20.70;83.30;;;;;;5051102;28;20036;-84
2022/09/22 10:38:18;;;;;;;3.17;1.85;;;20.40;84.10;;;;;;5051726;28;20025;-84
2022/09/22 10:40:48;;;;;;;1.27;0.75;;;20.30;85.60;;;;;;5054213;28;20485;-84
2022/09/22 10:43:37;;;;;;;2.80;0.88;;;20.20;84.20;;;;;;5051789;28;20028;-84
2022/09/22 10:46:05;;;;;;;2.13;0.90;;;20.10;81.20;;;;;;5051377;28;20484;-85
2022/09/22 10:48:52;;;;;;;1.40;0.80;;;19.90;81.30;;;;;;5051610;28;20040;-84
2022/09/22 10:51:32;;;;;;;;;;;19.80;82.20;;;;;;5051427;28;20600;-84
2022/09/22 10:54:11;;;;;;;1.80;0.80;;;19.40;88.60;;;;;;5049434;28;19956;-83
2022/09/22 10:56:42;;;;;;;3.17;0.90;;;19.10;87.60;;;;;;5050460;28;20107;-83
2022/09/22 10:59:23;;;;;;;1.50;0.70;;;19.10;89.90;;;;;;5050892;28;20397;-84
2022/09/22 11:02:06;;;;;;;1.10;0.65;;;19.00;90.20;;;;;;5051014;28;20448;-84
2022/09/22 11:04:46;;;;;;;2.95;0.85;;;18.90;88.90;;;;;;5050860;28;20040;-84
2022/09/22 11:13:45;;;;;;;1.92;0.70;;;18.20;90.30;;;;;;5052516;28;20086;-84
2022/09/22 11:16:49;;;;;;;1.38;0.65;;;17.70;88.90;;;;;;5051051;28;20063;-84
2022/09/22 11:19:33;;;;;;;2.05;0.70;;;17.30;90.00;;;;;;5074359;28;20052;-83
2022/09/22 11:22:06;;;;;;;1.80;0.60;;;16.80;93.40;;;;;;5075266;28;20024;-83
2022/09/22 11:24:57;;;;;;;2.67;0.60;;;16.50;94.40;;;;;;5070996;28;20028;-84
2022/09/22 11:28:07;;;;;;;3.30;1.60;;;16.00;94.70;;;;;;5054469;28;20027;-85
2022/09/22 11:30:45;;;;;;;2.35;0.93;;;15.90;96.40;;;;;;5033893;28;20481;-84
2022/09/22 11:33:20;;;;;;;3.10;0.73;;;15.70;95.30;;;;;;5050662;28;20049;-85
2022/09/22 11:35:57;;;;;;;2.85;1.05;;;15.40;95.30;;;;;;5051127;28;20032;-84
2022/09/22 11:38:33;;;;;;;3.08;0.73;;;15.20;95.60;;;;;;5050099;28;20036;-84
2022/09/22 11:41:17;;;;;;;3.55;0.93;;;15.30;97.10;;;;;;5049872;28;20061;-83
2022/09/22 11:44:01;;;;;;;2.83;0.60;;;15.50;98.40;;;;;;5050232;28;20029;-84
2022/09/22 11:46:54;;;;;;;5.18;1.23;;;15.70;97.00;;;;;;5050240;28;20036;-85
2022/09/22 11:49:25;;;;;;;1.42;0.80;;;15.80;97.20;;;;;;5051644;28;20045;-84
2022/09/22 11:51:53;;;;;;;1.52;0.80;;;15.80;96.70;;;;;;5051303;28;20029;-85
2022/09/22 11:54:29;;;;;;;1.20;0.80;;;15.80;97.00;;;;;;5049267;28;20071;-84
2022/09/22 11:57:01;;;;;;;1.98;0.85;;;15.80;97.50;;;;;;5049759;28;20021;-86
2022/09/22 12:00:00;;;;;;;4.78;0.80;;;15.90;98.00;;;;;;5051412;28;20039;-85
2022/09/22 12:02:40;;;;;;;1.08;0.50;;;15.90;98.50;;;;;;5036927;28;20033;-85
2022/09/22 12:05:20;;;;;;;1.92;0.98;;;15.90;99.50;;;;;;5048457;28;20036;-84
2022/09/22 12:08:01;;;;;;;1.85;0.63;;;16.20;99.10;;;;;;5049581;28;20623;-85
2022/09/22 12:10:35;;;;;;;2.35;0.82;;;16.40;99.30;;;;;;5047695;28;20056;-84
2022/09/22 12:13:18;;;;;;;1.70;0.90;;;16.60;99.10;;;;;;5050939;28;20031;-85
2022/09/22 12:16:00;;;;;;;1.67;0.90;;;16.80;97.90;;;;;;5049548;28;20025;-85
2022/09/22 12:18:38;;;;;;;1.58;0.82;;;16.80;98.10;;;;;;5049894;28;20132;-84
2022/09/22 12:21:32;;;;;;;2.20;1.05;;;16.80;98.80;;;;;;5049738;28;20025;-85
2022/09/22 12:24:06;;;;;;;1.77;0.80;;;16.80;99.00;;;;;;5013705;28;20056;-85
2022/09/22 12:26:45;;;;;;;1.27;0.57;;;16.80;98.00;;;;;;5049033;28;20025;-85
2022/09/22 12:29:13;;;;;;;1.40;0.68;;;16.70;97.80;;;;;;5049387;28;20056;-84
2022/09/22 12:31:41;;;;;;;1.85;0.90;;;16.80;98.10;;;;;;5049144;28;20477;-86
2022/09/22 12:34:32;;;;;;;3.08;0.73;;;16.80;98.90;;;;;;5049524;28;20036;-85
2022/09/22 12:37:10;;;;;;;1.35;0.80;;;16.80;99.20;;;;;;5049326;28;20111;-85
2022/09/22 12:39:42;;;;;;;2.15;0.63;;;16.80;98.50;;;;;;5048913;28;20029;-86
2022/09/22 12:42:23;;;;;;;2.45;0.88;;;16.80;99.10;;;;;;5049172;28;20025;-86
2022/09/22 12:44:56;;;;;;;3.33;0.80;;;16.90;99.10;;;;;;5047609;28;20493;-85
2022/09/22 12:47:34;;;;;;;3.58;1.50;;;16.80;98.30;;;;;;5048971;28;20029;-84
2022/09/22 12:50:23;;;;;;;1.20;0.70;;;16.80;98.10;;;;;;5049134;28;20430;-85
2022/09/22 12:52:49;;;;;;;1.60;0.60;;;16.80;97.60;;;;;;5050819;28;20102;-85
2022/09/22 12:55:27;;;;;;;4.03;0.70;;;16.80;97.70;;;;;;5047720;28;20143;-84
2022/09/22 12:57:58;;;;;;;1.63;0.50;;;16.80;98.10;;;;;;5048767;28;20078;-85
2022/09/22 13:00:28;;;;;;;4.70;0.60;;;16.70;97.90;;;;;;5050304;28;20020;-83
2022/09/22 13:02:55;;;;;;;2.15;0.73;;;16.80;98.50;;;;;;5049626;28;20190;-85
2022/09/22 13:05:24;;;;;;;3.97;0.95;;;16.80;98.00;;;;;;5048904;28;20028;-84
2022/09/22 13:07:57;;;;;;;3.47;0.95;;;16.80;98.60;;;;;;5047039;28;20063;-86
2022/09/22 13:10:23;;;;;;;1.50;0.70;;;16.80;98.90;;;;;;5048559;28;20143;-83
2022/09/22 13:13:08;;;;;;;1.48;0.50;;;16.70;98.90;;;;;;5049003;28;20079;-86
2022/09/22 13:15:48;;;;;;;1.98;0.90;;;16.80;98.60;;;;;;5049808;28;20029;-84
2022/09/22 13:18:38;;;;;;;1.05;0.50;;;16.80;98.90;;;;;;5048579;28;20494;-85
2022/09/22 13:21:13;;;;;;;0.95;0.50;;;16.80;99.10;;;;;;5046039;28;20017;-85
2022/09/22 13:23:54;;;;;;;2.45;0.70;;;16.90;98.70;;;;;;5051038;28;20520;-84
2022/09/22 13:26:27;;;;;;;1.17;0.70;;;16.90;98.90;;;;;;5044741;28;20030;-85
2022/09/22 13:29:21;;;;;;;1.48;0.70;;;16.90;99.30;;;;;;5039260;28;20029;-85
2022/09/22 13:31:53;;;;;;;2.47;0.93;;;16.90;99.90;;;;;;5028973;28;20032;-85
2022/09/22 13:34:26;;;;;;;5.10;0.90;;;17.00;99.80;;;;;;5043468;28;20450;-85
2022/09/22 13:37:00;;;;;;;2.60;1.05;;;17.00;99.40;;;;;;5048696;28;20052;-85
2022/09/22 13:39:30;;;;;;;1.63;0.70;;;17.00;99.20;;;;;;5048232;28;20161;-86
2022/09/22 13:42:19;;;;;;;1.85;0.98;;;16.90;98.90;;;;;;5049302;28;20290;-85